createdAt,value
2019-01-25T00:01:58.563Z,42.27
2019-01-25T00:04:27.252Z,44.20
2019-01-25T00:06:56.010Z,43.77
2019-01-25T00:09:24.664Z,43.33
2019-01-25T00:11:53.349Z,43.33
2019-01-25T00:14:22.109Z,46.47
2019-01-25T00:16:50.853Z,43.43
2019-01-25T00:19:19.511Z,44.83
2019-01-25T00:21:48.092Z,44.27
2019-01-25T00:24:16.755Z,43.37
2019-01-25T00:26:45.393Z,42.63
2019-01-25T00:29:14.128Z,43.30
2019-01-25T00:31:42.829Z,45.33
2019-01-25T00:34:12.609Z,45.17
2019-01-25T00:36:41.209Z,43.10
2019-01-25T00:39:10.163Z,44.10
2019-01-25T00:41:38.973Z,44.93
2019-01-25T00:44:09.637Z,43.17
2019-01-25T00:46:38.073Z,44.37
2019-01-25T00:49:06.642Z,39.43
2019-01-25T00:51:35.277Z,42.20
2019-01-25T00:54:03.987Z,43.23
2019-01-25T00:56:32.679Z,42.20
2019-01-25T00:59:02.902Z,45.33
2019-01-25T01:01:31.655Z,43.93
2019-01-25T01:04:00.261Z,44.30
2019-01-25T01:06:28.902Z,44.27
2019-01-25T01:08:57.549Z,45.10
2019-01-25T01:11:26.119Z,44.57
2019-01-25T01:13:54.688Z,43.67
2019-01-25T01:16:23.308Z,43.93
2019-01-25T01:18:51.912Z,44.67
2019-01-25T01:21:20.608Z,45.60
2019-01-25T01:23:49.321Z,44.77
2019-01-25T01:26:17.998Z,47.17
2019-01-25T01:28:46.984Z,46.37
2019-01-25T01:31:15.555Z,45.40
2019-01-25T01:33:44.599Z,47.37
2019-01-25T01:36:13.206Z,44.57
2019-01-25T01:38:41.780Z,45.03
2019-01-25T01:41:10.754Z,45.23
2019-01-25T01:43:39.404Z,45.67
2019-01-25T01:46:08.026Z,46.67
2019-01-25T01:48:36.705Z,45.30
2019-01-25T01:51:06.644Z,47.83
2019-01-25T01:53:35.230Z,44.70
2019-01-25T01:56:04.026Z,48.10
2019-01-25T01:58:32.678Z,46.60
2019-01-25T02:01:01.384Z,46.47
2019-01-25T02:03:30.306Z,45.87
2019-01-25T02:05:59.120Z,45.63
2019-01-25T02:08:27.817Z,45.97
2019-01-25T02:10:56.410Z,44.67
2019-01-25T02:13:25.072Z,46.53
2019-01-25T02:15:53.604Z,44.33
2019-01-25T02:18:22.444Z,46.27
2019-01-25T02:20:51.023Z,45.50
2019-01-25T02:23:19.542Z,42.57
2019-01-25T02:25:48.344Z,43.67
2019-01-25T02:28:25.565Z,44.13
2019-01-25T02:30:54.110Z,42.37
2019-01-25T02:33:22.669Z,46.17
2019-01-25T02:35:51.279Z,43.17
2019-01-25T02:38:20.478Z,43.40
2019-01-25T02:40:49.018Z,46.10
2019-01-25T02:43:17.641Z,44.73
2019-01-25T02:45:46.390Z,43.97
2019-01-25T02:48:18.739Z,43.90
2019-01-25T02:50:47.473Z,43.53
2019-01-25T02:53:16.187Z,42.70
2019-01-25T02:55:44.673Z,43.97
2019-01-25T02:58:13.174Z,43.13
2019-01-25T03:00:41.691Z,41.07
2019-01-25T03:03:10.298Z,42.23
2019-01-25T03:05:38.891Z,42.20
2019-01-25T03:08:07.637Z,42.63
2019-01-25T03:10:36.340Z,43.20
2019-01-25T03:13:05.052Z,42.80
2019-01-25T03:15:33.740Z,40.80
2019-01-25T03:18:04.953Z,41.13
2019-01-25T03:20:33.464Z,41.50
2019-01-25T03:23:07.630Z,40.10
2019-01-25T03:25:36.242Z,40.70
2019-01-25T03:28:04.790Z,43.33
2019-01-25T03:30:33.784Z,39.93
2019-01-25T03:33:02.414Z,41.87
2019-01-25T03:35:31.324Z,42.70
2019-01-25T03:37:59.979Z,40.97
2019-01-25T03:40:28.670Z,39.97
2019-01-25T03:42:57.253Z,41.87
2019-01-25T03:45:26.093Z,41.03
2019-01-25T03:47:54.775Z,40.63
2019-01-25T03:50:27.149Z,39.77
2019-01-25T03:52:56.766Z,40.93
2019-01-25T03:55:25.643Z,39.47
2019-01-25T03:57:54.334Z,39.87
2019-01-25T04:00:26.211Z,41.10
2019-01-25T04:02:54.881Z,39.33
2019-01-25T04:05:23.410Z,39.43
2019-01-25T04:07:52.060Z,39.80
2019-01-25T04:10:21.257Z,40.77
2019-01-25T04:12:49.809Z,40.73
2019-01-25T04:15:19.399Z,41.33
2019-01-25T04:17:48.151Z,40.07
2019-01-25T04:20:16.744Z,40.60
2019-01-25T04:22:45.287Z,41.73
2019-01-25T04:25:15.048Z,40.30
2019-01-25T04:27:44.152Z,42.00
2019-01-25T04:30:17.407Z,41.00
2019-01-25T04:32:45.998Z,43.47
2019-01-25T04:35:14.647Z,40.80
2019-01-25T04:37:43.355Z,42.10
2019-01-25T04:40:12.556Z,41.27
2019-01-25T04:42:42.290Z,40.33
2019-01-25T04:45:11.919Z,43.50
2019-01-25T04:47:40.531Z,41.10
2019-01-25T04:50:10.513Z,42.87
2019-01-25T04:52:39.068Z,42.33
2019-01-25T04:55:17.984Z,44.27
2019-01-25T04:57:46.704Z,41.50
2019-01-25T05:00:15.502Z,42.70
2019-01-25T05:02:57.002Z,43.17
2019-01-25T05:05:25.601Z,40.00
2019-01-25T05:08:13.377Z,43.30
2019-01-25T05:10:41.963Z,41.73
2019-01-25T05:13:11.526Z,41.67
2019-01-25T05:15:41.009Z,42.50
2019-01-25T05:18:09.696Z,41.20
2019-01-25T05:20:38.285Z,42.77
2019-01-25T05:23:07.034Z,41.13
2019-01-25T05:25:35.528Z,39.90
2019-01-25T05:28:16.624Z,41.10
2019-01-25T05:30:55.391Z,41.50
2019-01-25T05:33:23.830Z,41.97
2019-01-25T05:35:52.412Z,42.60
2019-01-25T05:38:21.096Z,44.33
2019-01-25T05:40:49.607Z,41.83
2019-01-25T05:43:18.094Z,43.03
2019-01-25T05:45:46.604Z,45.13
2019-01-25T05:48:15.086Z,42.40
2019-01-25T05:50:43.485Z,42.93
2019-01-25T05:53:12.019Z,44.60
2019-01-25T05:55:42.172Z,42.93
2019-01-25T05:58:10.646Z,43.97
2019-01-25T06:00:40.945Z,41.17
2019-01-25T06:03:12.824Z,42.93
2019-01-25T06:05:41.330Z,43.53
2019-01-25T06:08:29.681Z,43.30
2019-01-25T06:10:58.987Z,43.33
2019-01-25T06:13:27.470Z,43.83
2019-01-25T06:15:56.337Z,43.77
2019-01-25T06:18:24.845Z,42.27
2019-01-25T06:20:56.241Z,41.80
2019-01-25T06:23:26.541Z,41.17
2019-01-25T06:25:55.932Z,42.17
2019-01-25T06:28:24.675Z,42.87
2019-01-25T06:30:53.390Z,43.07
2019-01-25T06:33:21.874Z,41.93
2019-01-25T06:35:50.532Z,44.47
2019-01-25T06:38:19.071Z,42.10
2019-01-25T06:40:47.620Z,42.97
2019-01-25T06:43:16.295Z,43.00
2019-01-25T06:45:45.013Z,43.03
2019-01-25T06:48:13.627Z,42.70
2019-01-25T06:50:42.126Z,43.83
2019-01-25T06:53:13.402Z,41.63
2019-01-25T06:55:42.347Z,43.27
2019-01-25T06:58:34.335Z,44.00
2019-01-25T07:01:13.607Z,42.17
2019-01-25T07:03:43.445Z,41.30
2019-01-25T07:06:12.166Z,43.50
2019-01-25T07:08:40.920Z,42.80
2019-01-25T07:11:09.803Z,42.07
2019-01-25T07:13:41.446Z,41.57
2019-01-25T07:16:12.107Z,45.00
2019-01-25T07:18:40.830Z,43.33
2019-01-25T07:21:17.442Z,42.83
2019-01-25T07:23:47.575Z,43.40
2019-01-25T07:26:49.534Z,41.33
2019-01-25T07:29:36.884Z,37.60
2019-01-25T07:32:11.839Z,40.43
2019-01-25T07:34:51.885Z,35.23
2019-01-25T07:37:21.065Z,36.03
2019-01-25T07:39:50.072Z,37.00
2019-01-25T07:42:20.994Z,37.20
2019-01-25T07:44:58.305Z,38.47
2019-01-25T07:47:31.889Z,40.00
2019-01-25T07:50:01.103Z,37.07
2019-01-25T07:52:34.241Z,35.83
2019-01-25T07:55:03.216Z,37.53
2019-01-25T07:57:33.205Z,36.83
2019-01-25T08:00:01.982Z,35.20
2019-01-25T08:02:31.167Z,37.00
2019-01-25T08:05:02.819Z,37.43
2019-01-25T08:07:31.616Z,37.43
2019-01-25T08:10:06.149Z,37.30
2019-01-25T08:12:34.908Z,39.13
2019-01-25T08:15:12.026Z,39.67
2019-01-25T08:17:43.623Z,37.83
2019-01-25T08:20:12.350Z,35.70
2019-01-25T11:00:11.851Z,28.60
2019-01-25T11:06:14.007Z,28.40
2019-01-25T11:20:40.452Z,34.50
2019-01-25T12:16:19.171Z,44.47
2019-01-25T12:32:08.058Z,35.10
2019-01-25T12:34:37.756Z,37.63
2019-01-25T12:37:09.283Z,38.30
2019-01-25T12:39:38.284Z,38.97
2019-01-25T13:03:54.014Z,37.93
2019-01-25T13:06:36.337Z,37.50
2019-01-25T13:29:09.035Z,37.40
2019-01-25T13:31:40.412Z,36.77
2019-01-25T13:34:09.193Z,38.30
2019-01-25T13:37:25.122Z,36.70
2019-01-25T13:39:54.098Z,36.60
2019-01-25T13:42:26.173Z,38.70
2019-01-25T13:44:57.423Z,36.67
2019-01-25T13:47:46.181Z,39.40
2019-01-25T14:01:34.559Z,38.80
2019-01-25T14:05:21.569Z,38.23
2019-01-25T14:15:15.065Z,39.13
2019-01-25T14:18:23.804Z,36.80
2019-01-25T14:20:50.180Z,37.33
2019-01-25T14:23:19.352Z,40.47
2019-01-25T14:26:13.316Z,41.13
2019-01-25T14:28:42.059Z,38.17
2019-01-25T14:31:10.725Z,36.70
2019-01-25T14:33:39.244Z,38.57
2019-01-25T14:36:10.915Z,40.40
2019-01-25T14:38:39.753Z,40.30
2019-01-25T14:41:12.170Z,35.13
2019-01-25T15:01:53.129Z,40.33
2019-01-25T15:21:12.136Z,37.00
2019-01-25T15:23:58.724Z,39.97
2019-01-25T15:34:29.695Z,34.90
2019-01-25T15:36:58.783Z,38.37
2019-01-25T15:39:28.195Z,33.67
2019-01-25T15:41:58.213Z,35.13
2019-01-25T15:44:27.389Z,36.73
2019-01-25T15:46:56.509Z,37.07
2019-01-25T15:49:29.118Z,38.80
2019-01-25T15:51:58.427Z,37.63
2019-01-25T15:54:28.724Z,36.80
2019-01-25T15:56:58.852Z,38.10
2019-01-25T15:59:28.830Z,36.77
2019-01-25T16:02:07.580Z,35.50
2019-01-25T16:04:49.964Z,37.70
2019-01-25T16:07:19.023Z,37.70
2019-01-25T16:09:48.266Z,36.97
2019-01-25T16:12:17.129Z,34.47
2019-01-25T16:14:45.844Z,35.97
2019-01-25T16:17:14.421Z,35.40
2019-01-25T16:19:43.258Z,32.97
2019-01-25T16:22:12.160Z,34.70
2019-01-25T16:24:40.608Z,32.73
2019-01-25T16:27:09.548Z,33.33
2019-01-25T16:29:38.377Z,32.60
2019-01-25T16:32:07.499Z,32.03
2019-01-25T16:34:36.291Z,29.80
2019-01-25T16:37:05.125Z,29.87
2019-01-25T16:39:35.667Z,31.53
2019-01-25T16:42:08.581Z,30.23
2019-01-25T16:44:41.811Z,30.20
2019-01-25T16:47:10.710Z,31.03
2019-01-25T16:49:44.896Z,27.37
2019-01-25T16:52:13.864Z,27.20
2019-01-25T16:54:45.731Z,26.10
2019-01-25T16:57:16.961Z,24.70
2019-01-25T16:59:45.990Z,26.23
2019-01-25T17:02:16.383Z,23.63
2019-01-25T17:04:46.340Z,26.77
2019-01-25T17:07:15.090Z,27.20
2019-01-25T17:09:43.973Z,25.70
2019-01-25T17:12:12.675Z,27.27
2019-01-25T17:14:50.525Z,26.10
2019-01-25T17:17:20.669Z,25.67
2019-01-25T17:19:52.672Z,25.07
2019-01-25T17:22:27.323Z,26.87
2019-01-25T17:24:58.291Z,27.80
2019-01-25T17:27:26.920Z,27.67
2019-01-25T17:29:55.710Z,28.03
2019-01-25T17:32:26.040Z,26.07
2019-01-25T17:34:54.826Z,28.33
2019-01-25T17:37:23.446Z,28.00
2019-01-25T17:39:55.235Z,30.47
2019-01-25T17:42:24.196Z,30.93
2019-01-25T17:44:52.873Z,30.87
2019-01-25T17:47:21.429Z,32.07
2019-01-25T17:49:50.401Z,33.60
2019-01-25T17:52:21.389Z,32.37
2019-01-25T17:54:49.956Z,33.30
2019-01-25T17:57:21.583Z,35.00
2019-01-25T17:59:50.190Z,36.33
2019-01-25T18:02:19.437Z,36.17
2019-01-25T18:04:48.347Z,36.30
2019-01-25T18:07:17.151Z,38.60
2019-01-25T18:09:45.943Z,38.97
2019-01-25T18:12:14.575Z,40.30
2019-01-25T18:14:49.180Z,40.67
2019-01-25T18:17:16.782Z,42.47
2019-01-25T18:19:48.574Z,41.67
2019-01-25T18:22:20.447Z,41.87
2019-01-25T18:24:50.561Z,38.67
2019-01-25T18:27:24.842Z,40.03
2019-01-25T18:30:01.271Z,40.53
2019-01-25T18:32:31.828Z,39.50
2019-01-25T18:35:23.411Z,37.60
2019-01-25T18:37:55.107Z,38.13
2019-01-25T18:40:48.123Z,37.17
2019-01-25T18:43:23.763Z,36.60
2019-01-25T18:46:03.754Z,39.07
2019-01-25T18:48:46.274Z,36.73
2019-01-25T18:51:15.102Z,37.47
2019-01-25T18:53:45.902Z,34.70
2019-01-25T18:59:11.440Z,31.30
2019-01-25T19:01:43.142Z,31.30
2019-01-25T19:04:27.205Z,31.27
2019-01-25T19:07:01.370Z,28.27
2019-01-25T19:09:40.118Z,28.17
2019-01-25T19:12:23.914Z,29.23
2019-01-25T19:14:47.738Z,29.53
2019-01-25T19:17:39.939Z,28.33
2019-01-25T19:20:09.706Z,27.97
2019-01-25T19:22:40.617Z,25.97
2019-01-25T19:25:09.367Z,27.73
2019-01-25T19:27:44.865Z,26.73
2019-01-25T19:30:18.183Z,26.43
2019-01-25T19:32:47.297Z,24.53
2019-01-25T19:35:41.267Z,25.30
2019-01-25T19:38:12.448Z,23.60
2019-01-25T19:40:41.214Z,23.60
2019-01-25T19:43:10.467Z,22.17
2019-01-25T19:51:10.335Z,22.10
2019-01-25T19:53:39.143Z,20.53
2019-01-25T19:56:07.974Z,19.50
2019-01-25T19:58:36.686Z,19.67
2019-01-25T20:01:06.055Z,18.37
2019-01-25T20:03:43.723Z,18.47
2019-01-25T20:06:35.181Z,18.83
2019-01-25T20:09:28.255Z,18.20
2019-01-25T20:12:00.359Z,15.57
2019-01-25T20:14:29.180Z,16.87
2019-01-25T20:16:57.959Z,15.90
2019-01-25T20:19:32.961Z,17.77
2019-01-25T20:22:02.038Z,15.57
2019-01-25T20:31:11.017Z,13.27
2019-01-25T20:36:44.608Z,12.60
2019-01-25T20:39:25.674Z,13.50
2019-01-25T20:45:32.624Z,13.70
2019-01-25T20:48:09.626Z,12.30
2019-01-25T20:50:48.642Z,12.47
2019-01-25T20:57:07.279Z,11.00
2019-01-25T20:59:43.632Z,10.63
2019-01-25T21:02:33.947Z,11.87
2019-01-25T21:08:10.740Z,9.20
2019-01-25T21:10:54.966Z,9.80
2019-01-25T21:13:30.596Z,10.20
2019-01-25T21:16:02.812Z,10.63
2019-01-25T21:18:36.273Z,9.70
2019-01-25T21:21:09.538Z,10.63
2019-01-25T21:23:43.163Z,10.83
2019-01-25T21:26:24.887Z,9.53
2019-01-25T21:29:00.443Z,10.23
2019-01-25T21:31:35.691Z,9.60
2019-01-25T21:34:07.072Z,9.13
2019-01-25T21:36:37.402Z,9.80
2019-01-25T21:39:12.539Z,8.97
2019-01-25T21:41:41.964Z,9.70
2019-01-25T21:44:13.755Z,9.33
2019-01-25T21:46:48.524Z,9.67
2019-01-25T21:49:17.525Z,9.67
2019-01-25T21:51:49.579Z,9.13
2019-01-25T21:54:36.381Z,10.57
2019-01-25T21:57:09.056Z,9.07
2019-01-25T21:59:38.196Z,9.07
2019-01-25T22:02:09.465Z,10.57
2019-01-25T22:04:43.591Z,10.07
2019-01-25T22:07:12.429Z,8.87
2019-01-25T22:09:45.961Z,8.90
2019-01-25T22:12:16.252Z,9.07
2019-01-25T22:14:48.988Z,8.07
2019-01-25T22:17:22.825Z,9.17
2019-01-25T22:20:04.063Z,9.03
2019-01-25T22:22:40.384Z,8.20
2019-01-25T22:25:13.837Z,7.87
2019-01-25T22:27:48.183Z,8.77
2019-01-25T22:30:23.659Z,8.60
2019-01-25T22:33:01.800Z,8.23
2019-01-25T22:35:43.682Z,8.67
2019-01-25T22:38:28.239Z,10.47
2019-01-25T22:41:09.371Z,8.50
2019-01-25T22:43:49.248Z,8.20
2019-01-25T23:08:06.014Z,9.07
2019-01-25T23:35:23.099Z,8.90
2019-01-25T23:37:53.492Z,8.37
2019-01-25T23:40:24.167Z,9.83
2019-01-25T23:42:53.196Z,10.20
2019-01-25T23:45:21.749Z,9.50
2019-01-25T23:47:55.798Z,10.00
2019-01-25T23:50:21.841Z,10.53
2019-01-25T23:52:50.528Z,11.30
2019-01-25T23:55:19.985Z,9.20
2019-01-25T23:57:48.680Z,10.73
